sensor_id;sensor_type;location;lat;lon;timestamp;temperature;humidity
27226;DHT22;14732;51.074;3.788;2023-03-19T00:01:12;12.30;99.90
27226;DHT22;14732;51.074;3.788;2023-03-19T00:03:38;12.30;99.90
27226;DHT22;14732;51.074;3.788;2023-03-19T00:06:03;12.30;99.90
27226;DHT22;14732;51.074;3.788;2023-03-19T00:08:29;12.30;99.90
27226;DHT22;14732;51.074;3.788;2023-03-19T00:10:55;12.30;99.90
27226;DHT22;14732;51.074;3.788;2023-03-19T00:13:21;12.30;99.90
27226;DHT22;14732;51.074;3.788;2023-03-19T00:15:46;12.20;99.90
27226;DHT22;14732;51.074;3.788;2023-03-19T00:18:12;12.20;99.90
27226;DHT22;14732;51.074;3.788;2023-03-19T00:20:39;12.20;99.90
27226;DHT22;14732;51.074;3.788;2023-03-19T00:23:04;12.20;99.90
27226;DHT22;14732;51.074;3.788;2023-03-19T00:25:31;12.10;99.90
27226;DHT22;14732;51.074;3.788;2023-03-19T00:27:57;12.00;99.90
27226;DHT22;14732;51.074;3.788;2023-03-19T00:30:23;11.90;99.90
27226;DHT22;14732;51.074;3.788;2023-03-19T00:32:49;12.00;99.90
27226;DHT22;14732;51.074;3.788;2023-03-19T00:35:15;11.90;99.90
27226;DHT22;14732;51.074;3.788;2023-03-19T00:37:41;11.80;99.90
27226;DHT22;14732;51.074;3.788;2023-03-19T00:40:07;11.80;99.90
27226;DHT22;14732;51.074;3.788;2023-03-19T00:42:34;11.70;99.90
27226;DHT22;14732;51.074;3.788;2023-03-19T00:45:01;11.70;99.90
27226;DHT22;14732;51.074;3.788;2023-03-19T00:47:26;11.80;99.90
27226;DHT22;14732;51.074;3.788;2023-03-19T00:49:52;11.70;99.90
27226;DHT22;14732;51.074;3.788;2023-03-19T00:52:18;11.80;99.90
27226;DHT22;14732;51.074;3.788;2023-03-19T00:54:43;11.90;99.90
27226;DHT22;14732;51.074;3.788;2023-03-19T00:57:09;12.00;99.90
27226;DHT22;14732;51.074;3.788;2023-03-19T00:59:35;11.90;99.90
27226;DHT22;14732;51.074;3.788;2023-03-19T01:02:01;11.80;99.90
27226;DHT22;14732;51.074;3.788;2023-03-19T01:04:27;11.70;99.90
27226;DHT22;14732;51.074;3.788;2023-03-19T01:06:52;11.70;99.90
27226;DHT22;14732;51.074;3.788;2023-03-19T01:09:18;11.60;99.90
27226;DHT22;14732;51.074;3.788;2023-03-19T01:11:44;11.60;99.90
27226;DHT22;14732;51.074;3.788;2023-03-19T01:14:10;11.50;99.90
27226;DHT22;14732;51.074;3.788;2023-03-19T01:16:36;11.50;99.90
27226;DHT22;14732;51.074;3.788;2023-03-19T01:19:02;11.50;99.90
27226;DHT22;14732;51.074;3.788;2023-03-19T01:21:28;11.40;99.90
27226;DHT22;14732;51.074;3.788;2023-03-19T01:23:57;11.40;99.90
27226;DHT22;14732;51.074;3.788;2023-03-19T01:26:23;11.40;99.90
27226;DHT22;14732;51.074;3.788;2023-03-19T01:28:49;11.40;99.90
27226;DHT22;14732;51.074;3.788;2023-03-19T01:31:15;11.40;99.90
27226;DHT22;14732;51.074;3.788;2023-03-19T01:33:41;11.40;99.90
27226;DHT22;14732;51.074;3.788;2023-03-19T01:36:07;11.30;99.90
27226;DHT22;14732;51.074;3.788;2023-03-19T01:38:33;11.20;99.90
27226;DHT22;14732;51.074;3.788;2023-03-19T01:40:59;11.10;99.90
27226;DHT22;14732;51.074;3.788;2023-03-19T01:43:27;11.10;99.90
27226;DHT22;14732;51.074;3.788;2023-03-19T01:46:00;11.10;99.90
27226;DHT22;14732;51.074;3.788;2023-03-19T01:48:38;11.10;99.90
27226;DHT22;14732;51.074;3.788;2023-03-19T01:51:07;11.00;99.90
27226;DHT22;14732;51.074;3.788;2023-03-19T01:53:35;11.00;99.90
27226;DHT22;14732;51.074;3.788;2023-03-19T01:58:36;10.90;99.90
27226;DHT22;14732;51.074;3.788;2023-03-19T02:01:01;10.80;99.90
27226;DHT22;14732;51.074;3.788;2023-03-19T02:03:28;10.80;99.90
27226;DHT22;14732;51.074;3.788;2023-03-19T02:05:54;10.90;99.90
27226;DHT22;14732;51.074;3.788;2023-03-19T02:08:21;10.90;99.90
27226;DHT22;14732;51.074;3.788;2023-03-19T02:10:48;10.90;99.90
27226;DHT22;14732;51.074;3.788;2023-03-19T02:13:14;10.90;99.90
27226;DHT22;14732;51.074;3.788;2023-03-19T02:15:41;10.90;99.90
27226;DHT22;14732;51.074;3.788;2023-03-19T02:18:07;10.90;99.90
27226;DHT22;14732;51.074;3.788;2023-03-19T02:21:07;10.80;99.90
27226;DHT22;14732;51.074;3.788;2023-03-19T02:26:22;10.80;99.90
27226;DHT22;14732;51.074;3.788;2023-03-19T02:28:50;10.80;99.90
27226;DHT22;14732;51.074;3.788;2023-03-19T02:31:17;10.70;99.90
27226;DHT22;14732;51.074;3.788;2023-03-19T02:33:43;10.60;99.90
27226;DHT22;14732;51.074;3.788;2023-03-19T02:36:13;10.60;99.90
27226;DHT22;14732;51.074;3.788;2023-03-19T02:38:43;10.50;99.90
27226;DHT22;14732;51.074;3.788;2023-03-19T02:41:09;10.50;99.90
27226;DHT22;14732;51.074;3.788;2023-03-19T02:43:37;10.50;99.90
27226;DHT22;14732;51.074;3.788;2023-03-19T02:46:09;10.30;99.90
27226;DHT22;14732;51.074;3.788;2023-03-19T02:48:36;10.30;99.90
27226;DHT22;14732;51.074;3.788;2023-03-19T02:51:03;10.30;99.90
27226;DHT22;14732;51.074;3.788;2023-03-19T02:53:29;10.40;99.90
27226;DHT22;14732;51.074;3.788;2023-03-19T02:55:55;10.40;99.90
27226;DHT22;14732;51.074;3.788;2023-03-19T02:58:20;10.40;99.90
27226;DHT22;14732;51.074;3.788;2023-03-19T03:00:46;10.50;99.90
27226;DHT22;14732;51.074;3.788;2023-03-19T03:03:12;10.40;99.90
27226;DHT22;14732;51.074;3.788;2023-03-19T03:05:38;10.50;99.90
27226;DHT22;14732;51.074;3.788;2023-03-19T03:08:04;10.40;99.90
27226;DHT22;14732;51.074;3.788;2023-03-19T03:10:31;10.30;99.90
27226;DHT22;14732;51.074;3.788;2023-03-19T03:12:58;10.30;99.90
27226;DHT22;14732;51.074;3.788;2023-03-19T03:15:23;10.30;99.90
27226;DHT22;14732;51.074;3.788;2023-03-19T03:17:49;10.30;99.90
27226;DHT22;14732;51.074;3.788;2023-03-19T03:20:16;10.10;99.90
27226;DHT22;14732;51.074;3.788;2023-03-19T03:22:42;10.20;99.90
27226;DHT22;14732;51.074;3.788;2023-03-19T03:25:09;10.20;99.90
27226;DHT22;14732;51.074;3.788;2023-03-19T03:27:36;10.10;99.90
27226;DHT22;14732;51.074;3.788;2023-03-19T03:30:03;10.00;99.90
27226;DHT22;14732;51.074;3.788;2023-03-19T03:32:29;10.00;99.90
27226;DHT22;14732;51.074;3.788;2023-03-19T03:34:55;9.90;99.90
27226;DHT22;14732;51.074;3.788;2023-03-19T03:37:21;9.90;99.90
27226;DHT22;14732;51.074;3.788;2023-03-19T03:39:47;9.80;99.90
27226;DHT22;14732;51.074;3.788;2023-03-19T03:42:13;9.90;99.90
27226;DHT22;14732;51.074;3.788;2023-03-19T03:44:38;9.90;99.90
27226;DHT22;14732;51.074;3.788;2023-03-19T03:47:04;9.90;99.90
27226;DHT22;14732;51.074;3.788;2023-03-19T03:49:30;9.90;99.90
27226;DHT22;14732;51.074;3.788;2023-03-19T03:51:56;9.80;99.90
27226;DHT22;14732;51.074;3.788;2023-03-19T03:54:21;9.80;99.90
27226;DHT22;14732;51.074;3.788;2023-03-19T03:56:47;9.70;99.90
27226;DHT22;14732;51.074;3.788;2023-03-19T03:59:15;9.80;99.90
27226;DHT22;14732;51.074;3.788;2023-03-19T04:01:41;9.70;99.90
27226;DHT22;14732;51.074;3.788;2023-03-19T04:04:06;9.80;99.90
27226;DHT22;14732;51.074;3.788;2023-03-19T04:06:32;9.90;99.90
27226;DHT22;14732;51.074;3.788;2023-03-19T04:08:58;9.90;99.90
27226;DHT22;14732;51.074;3.788;2023-03-19T04:11:24;9.90;99.90
27226;DHT22;14732;51.074;3.788;2023-03-19T04:13:50;9.90;99.90
27226;DHT22;14732;51.074;3.788;2023-03-19T04:16:16;9.80;99.90
27226;DHT22;14732;51.074;3.788;2023-03-19T04:18:42;9.80;99.90
27226;DHT22;14732;51.074;3.788;2023-03-19T04:21:07;9.90;99.90
27226;DHT22;14732;51.074;3.788;2023-03-19T04:23:33;9.80;99.90
27226;DHT22;14732;51.074;3.788;2023-03-19T04:26:00;9.80;99.90
27226;DHT22;14732;51.074;3.788;2023-03-19T04:28:27;9.80;99.90
27226;DHT22;14732;51.074;3.788;2023-03-19T04:31:06;9.70;99.90
27226;DHT22;14732;51.074;3.788;2023-03-19T04:33:32;9.70;99.90
27226;DHT22;14732;51.074;3.788;2023-03-19T04:35:59;9.60;99.90
27226;DHT22;14732;51.074;3.788;2023-03-19T04:38:24;9.60;99.90
27226;DHT22;14732;51.074;3.788;2023-03-19T04:40:54;9.70;99.90
27226;DHT22;14732;51.074;3.788;2023-03-19T04:43:21;9.60;99.90
27226;DHT22;14732;51.074;3.788;2023-03-19T04:45:47;9.70;99.90
27226;DHT22;14732;51.074;3.788;2023-03-19T04:48:13;9.70;99.90
27226;DHT22;14732;51.074;3.788;2023-03-19T04:50:39;9.70;99.90
27226;DHT22;14732;51.074;3.788;2023-03-19T04:53:05;9.80;99.90
27226;DHT22;14732;51.074;3.788;2023-03-19T04:55:31;9.80;99.90
27226;DHT22;14732;51.074;3.788;2023-03-19T04:57:57;9.70;99.90
27226;DHT22;14732;51.074;3.788;2023-03-19T05:00:22;9.80;99.90
27226;DHT22;14732;51.074;3.788;2023-03-19T05:02:48;9.80;99.90
27226;DHT22;14732;51.074;3.788;2023-03-19T05:05:14;9.80;99.90
27226;DHT22;14732;51.074;3.788;2023-03-19T05:07:40;9.90;99.90
27226;DHT22;14732;51.074;3.788;2023-03-19T05:10:07;10.00;99.90
27226;DHT22;14732;51.074;3.788;2023-03-19T05:12:33;10.00;99.90
27226;DHT22;14732;51.074;3.788;2023-03-19T05:15:00;10.00;99.90
27226;DHT22;14732;51.074;3.788;2023-03-19T05:17:26;10.10;99.90
27226;DHT22;14732;51.074;3.788;2023-03-19T05:19:52;10.00;99.90
27226;DHT22;14732;51.074;3.788;2023-03-19T05:22:18;10.10;99.90
27226;DHT22;14732;51.074;3.788;2023-03-19T05:24:45;10.10;99.90
27226;DHT22;14732;51.074;3.788;2023-03-19T05:27:11;10.10;99.90
27226;DHT22;14732;51.074;3.788;2023-03-19T05:29:37;10.20;99.90
27226;DHT22;14732;51.074;3.788;2023-03-19T05:32:03;10.30;99.90
27226;DHT22;14732;51.074;3.788;2023-03-19T05:34:29;10.50;99.90
27226;DHT22;14732;51.074;3.788;2023-03-19T05:36:55;10.40;99.90
27226;DHT22;14732;51.074;3.788;2023-03-19T05:39:22;10.40;99.90
27226;DHT22;14732;51.074;3.788;2023-03-19T05:41:47;10.50;99.90
27226;DHT22;14732;51.074;3.788;2023-03-19T05:44:13;10.50;99.90
27226;DHT22;14732;51.074;3.788;2023-03-19T05:46:39;10.60;99.90
27226;DHT22;14732;51.074;3.788;2023-03-19T05:49:06;10.60;99.90
27226;DHT22;14732;51.074;3.788;2023-03-19T05:51:31;10.40;99.90
27226;DHT22;14732;51.074;3.788;2023-03-19T05:53:57;10.40;99.90
27226;DHT22;14732;51.074;3.788;2023-03-19T05:56:23;10.30;99.90
27226;DHT22;14732;51.074;3.788;2023-03-19T05:58:48;10.40;99.90
27226;DHT22;14732;51.074;3.788;2023-03-19T06:01:14;10.50;99.90
27226;DHT22;14732;51.074;3.788;2023-03-19T06:03:40;10.50;99.90
27226;DHT22;14732;51.074;3.788;2023-03-19T06:06:06;10.60;99.90
27226;DHT22;14732;51.074;3.788;2023-03-19T06:08:32;10.60;99.90
27226;DHT22;14732;51.074;3.788;2023-03-19T06:10:58;10.70;99.90
27226;DHT22;14732;51.074;3.788;2023-03-19T06:13:24;10.70;99.90
27226;DHT22;14732;51.074;3.788;2023-03-19T06:15:50;10.50;99.90
27226;DHT22;14732;51.074;3.788;2023-03-19T06:18:16;10.70;99.90
27226;DHT22;14732;51.074;3.788;2023-03-19T06:20:42;10.80;99.90
27226;DHT22;14732;51.074;3.788;2023-03-19T06:23:08;10.70;99.90
27226;DHT22;14732;51.074;3.788;2023-03-19T06:25:34;10.80;99.90
27226;DHT22;14732;51.074;3.788;2023-03-19T06:28:00;10.80;99.90
27226;DHT22;14732;51.074;3.788;2023-03-19T06:30:25;10.90;99.90
27226;DHT22;14732;51.074;3.788;2023-03-19T06:32:51;11.00;99.90
27226;DHT22;14732;51.074;3.788;2023-03-19T06:35:17;11.00;99.90
27226;DHT22;14732;51.074;3.788;2023-03-19T06:37:43;11.00;99.90
27226;DHT22;14732;51.074;3.788;2023-03-19T06:40:09;11.00;99.90
27226;DHT22;14732;51.074;3.788;2023-03-19T06:42:35;10.90;99.90
27226;DHT22;14732;51.074;3.788;2023-03-19T06:45:01;11.00;99.90
27226;DHT22;14732;51.074;3.788;2023-03-19T06:47:27;11.00;99.90
27226;DHT22;14732;51.074;3.788;2023-03-19T06:49:53;11.20;99.90
27226;DHT22;14732;51.074;3.788;2023-03-19T06:52:18;11.40;99.90
27226;DHT22;14732;51.074;3.788;2023-03-19T06:54:44;11.40;99.90
27226;DHT22;14732;51.074;3.788;2023-03-19T06:57:10;11.30;99.90
27226;DHT22;14732;51.074;3.788;2023-03-19T06:59:36;11.60;99.90
27226;DHT22;14732;51.074;3.788;2023-03-19T07:02:02;11.70;99.90
27226;DHT22;14732;51.074;3.788;2023-03-19T07:04:28;11.90;99.90
27226;DHT22;14732;51.074;3.788;2023-03-19T07:06:54;11.80;99.90
27226;DHT22;14732;51.074;3.788;2023-03-19T07:09:20;11.80;99.90
27226;DHT22;14732;51.074;3.788;2023-03-19T07:11:46;11.90;99.90
27226;DHT22;14732;51.074;3.788;2023-03-19T07:14:11;12.00;99.90
27226;DHT22;14732;51.074;3.788;2023-03-19T07:16:38;12.20;99.90
27226;DHT22;14732;51.074;3.788;2023-03-19T07:19:03;12.20;99.90
27226;DHT22;14732;51.074;3.788;2023-03-19T07:21:29;12.20;99.90
27226;DHT22;14732;51.074;3.788;2023-03-19T07:23:55;12.20;99.90
27226;DHT22;14732;51.074;3.788;2023-03-19T07:26:21;12.40;99.90
27226;DHT22;14732;51.074;3.788;2023-03-19T07:28:46;12.50;99.90
27226;DHT22;14732;51.074;3.788;2023-03-19T07:31:13;12.70;99.90
27226;DHT22;14732;51.074;3.788;2023-03-19T07:33:38;12.80;99.90
27226;DHT22;14732;51.074;3.788;2023-03-19T07:36:05;12.70;99.90
27226;DHT22;14732;51.074;3.788;2023-03-19T07:38:31;12.70;99.90
27226;DHT22;14732;51.074;3.788;2023-03-19T07:40:57;12.70;99.90
27226;DHT22;14732;51.074;3.788;2023-03-19T07:43:23;12.70;99.90
27226;DHT22;14732;51.074;3.788;2023-03-19T07:45:48;12.80;99.90
27226;DHT22;14732;51.074;3.788;2023-03-19T07:48:14;12.80;99.90
27226;DHT22;14732;51.074;3.788;2023-03-19T07:50:39;12.60;99.90
27226;DHT22;14732;51.074;3.788;2023-03-19T07:53:06;12.50;99.90
27226;DHT22;14732;51.074;3.788;2023-03-19T07:55:32;12.30;99.90
27226;DHT22;14732;51.074;3.788;2023-03-19T07:57:57;12.30;99.90
27226;DHT22;14732;51.074;3.788;2023-03-19T08:00:24;12.30;99.90
27226;DHT22;14732;51.074;3.788;2023-03-19T08:02:50;12.60;99.90
27226;DHT22;14732;51.074;3.788;2023-03-19T08:05:15;12.60;99.90
27226;DHT22;14732;51.074;3.788;2023-03-19T08:07:41;12.40;99.90
27226;DHT22;14732;51.074;3.788;2023-03-19T08:10:07;12.40;99.90
27226;DHT22;14732;51.074;3.788;2023-03-19T08:12:33;12.80;99.90
27226;DHT22;14732;51.074;3.788;2023-03-19T08:15:06;13.10;99.90
27226;DHT22;14732;51.074;3.788;2023-03-19T08:17:33;13.00;99.90
27226;DHT22;14732;51.074;3.788;2023-03-19T08:20:07;13.20;99.90
27226;DHT22;14732;51.074;3.788;2023-03-19T08:22:37;13.10;99.90
27226;DHT22;14732;51.074;3.788;2023-03-19T08:25:05;12.90;99.90
27226;DHT22;14732;51.074;3.788;2023-03-19T08:27:31;12.60;99.90
27226;DHT22;14732;51.074;3.788;2023-03-19T08:30:00;12.90;99.90
27226;DHT22;14732;51.074;3.788;2023-03-19T08:32:27;13.00;99.90
27226;DHT22;14732;51.074;3.788;2023-03-19T08:34:52;12.90;99.90
27226;DHT22;14732;51.074;3.788;2023-03-19T08:37:18;12.80;99.90
27226;DHT22;14732;51.074;3.788;2023-03-19T08:39:44;12.80;99.90
27226;DHT22;14732;51.074;3.788;2023-03-19T08:42:10;12.70;99.90
27226;DHT22;14732;51.074;3.788;2023-03-19T08:44:36;12.60;99.90
27226;DHT22;14732;51.074;3.788;2023-03-19T08:47:01;12.50;99.90
27226;DHT22;14732;51.074;3.788;2023-03-19T08:49:28;12.40;99.90
27226;DHT22;14732;51.074;3.788;2023-03-19T08:51:53;12.50;99.90
27226;DHT22;14732;51.074;3.788;2023-03-19T08:54:19;12.70;99.90
27226;DHT22;14732;51.074;3.788;2023-03-19T08:56:45;12.80;99.90
27226;DHT22;14732;51.074;3.788;2023-03-19T08:59:11;12.70;99.90
27226;DHT22;14732;51.074;3.788;2023-03-19T09:01:36;12.80;99.90
27226;DHT22;14732;51.074;3.788;2023-03-19T09:04:02;13.00;99.90
27226;DHT22;14732;51.074;3.788;2023-03-19T09:06:29;13.00;99.90
27226;DHT22;14732;51.074;3.788;2023-03-19T09:08:54;13.10;99.90
27226;DHT22;14732;51.074;3.788;2023-03-19T09:11:20;13.10;99.90
27226;DHT22;14732;51.074;3.788;2023-03-19T09:13:47;13.00;99.90
27226;DHT22;14732;51.074;3.788;2023-03-19T09:16:14;13.20;99.90
27226;DHT22;14732;51.074;3.788;2023-03-19T09:18:40;12.90;99.90
27226;DHT22;14732;51.074;3.788;2023-03-19T09:21:06;12.90;99.90
27226;DHT22;14732;51.074;3.788;2023-03-19T09:23:31;13.20;99.90
27226;DHT22;14732;51.074;3.788;2023-03-19T09:25:57;13.30;99.90
27226;DHT22;14732;51.074;3.788;2023-03-19T09:28:23;13.10;99.90
27226;DHT22;14732;51.074;3.788;2023-03-19T09:30:49;13.20;99.90
27226;DHT22;14732;51.074;3.788;2023-03-19T09:33:18;12.80;99.90
27226;DHT22;14732;51.074;3.788;2023-03-19T09:35:49;12.70;99.90
27226;DHT22;14732;51.074;3.788;2023-03-19T09:38:16;12.30;99.90
27226;DHT22;14732;51.074;3.788;2023-03-19T09:40:44;12.60;99.90
27226;DHT22;14732;51.074;3.788;2023-03-19T09:45:59;12.70;99.90
27226;DHT22;14732;51.074;3.788;2023-03-19T09:48:53;12.80;99.90
27226;DHT22;14732;51.074;3.788;2023-03-19T09:51:43;12.50;99.90
27226;DHT22;14732;51.074;3.788;2023-03-19T09:54:47;12.50;99.90
27226;DHT22;14732;51.074;3.788;2023-03-19T09:57:17;12.20;99.90
27226;DHT22;14732;51.074;3.788;2023-03-19T09:59:44;12.00;99.90
27226;DHT22;14732;51.074;3.788;2023-03-19T10:13:17;12.30;99.90
27226;DHT22;14732;51.074;3.788;2023-03-19T10:15:46;12.30;99.90
27226;DHT22;14732;51.074;3.788;2023-03-19T10:18:20;12.40;99.90
27226;DHT22;14732;51.074;3.788;2023-03-19T10:20:59;12.30;99.90
27226;DHT22;14732;51.074;3.788;2023-03-19T10:25:58;12.90;99.90
27226;DHT22;14732;51.074;3.788;2023-03-19T10:28:25;13.20;99.90
27226;DHT22;14732;51.074;3.788;2023-03-19T10:36:40;14.20;99.90
27226;DHT22;14732;51.074;3.788;2023-03-19T10:39:06;14.60;99.90
27226;DHT22;14732;51.074;3.788;2023-03-19T10:44:37;15.20;99.90
27226;DHT22;14732;51.074;3.788;2023-03-19T10:47:15;15.90;99.90
27226;DHT22;14732;51.074;3.788;2023-03-19T10:49:41;16.10;99.90
27226;DHT22;14732;51.074;3.788;2023-03-19T10:52:35;15.80;99.90
27226;DHT22;14732;51.074;3.788;2023-03-19T10:55:11;16.30;99.90
27226;DHT22;14732;51.074;3.788;2023-03-19T10:57:41;16.50;99.90
27226;DHT22;14732;51.074;3.788;2023-03-19T11:00:23;16.60;99.90
27226;DHT22;14732;51.074;3.788;2023-03-19T11:02:52;16.70;99.90
27226;DHT22;14732;51.074;3.788;2023-03-19T11:05:24;16.70;99.90
27226;DHT22;14732;51.074;3.788;2023-03-19T11:10:22;16.40;99.90
27226;DHT22;14732;51.074;3.788;2023-03-19T11:12:54;16.20;99.90
27226;DHT22;14732;51.074;3.788;2023-03-19T11:15:27;16.00;99.90
27226;DHT22;14732;51.074;3.788;2023-03-19T11:18:05;16.00;99.90
27226;DHT22;14732;51.074;3.788;2023-03-19T11:20:33;16.10;99.90
27226;DHT22;14732;51.074;3.788;2023-03-19T11:23:00;16.00;99.90
27226;DHT22;14732;51.074;3.788;2023-03-19T11:25:39;16.10;99.90
27226;DHT22;14732;51.074;3.788;2023-03-19T11:28:16;16.30;99.90
27226;DHT22;14732;51.074;3.788;2023-03-19T11:30:46;16.40;99.90
27226;DHT22;14732;51.074;3.788;2023-03-19T11:58:27;13.80;99.90
27226;DHT22;14732;51.074;3.788;2023-03-19T12:00:54;13.80;99.90
27226;DHT22;14732;51.074;3.788;2023-03-19T12:06:18;13.90;99.90
27226;DHT22;14732;51.074;3.788;2023-03-19T12:09:12;14.20;99.90
27226;DHT22;14732;51.074;3.788;2023-03-19T12:17:22;14.90;99.90
27226;DHT22;14732;51.074;3.788;2023-03-19T12:22:40;15.30;99.90
27226;DHT22;14732;51.074;3.788;2023-03-19T12:31:23;15.50;99.90
27226;DHT22;14732;51.074;3.788;2023-03-19T12:36:40;15.60;99.90
27226;DHT22;14732;51.074;3.788;2023-03-19T12:39:16;15.60;99.90
27226;DHT22;14732;51.074;3.788;2023-03-19T12:41:45;15.60;99.90
27226;DHT22;14732;51.074;3.788;2023-03-19T12:47:13;15.00;99.90
27226;DHT22;14732;51.074;3.788;2023-03-19T12:50:02;15.20;99.90
27226;DHT22;14732;51.074;3.788;2023-03-19T12:52:37;15.20;99.90
27226;DHT22;14732;51.074;3.788;2023-03-19T12:55:25;15.30;99.90
27226;DHT22;14732;51.074;3.788;2023-03-19T12:58:06;15.30;99.90
27226;DHT22;14732;51.074;3.788;2023-03-19T13:09:03;14.30;99.90
27226;DHT22;14732;51.074;3.788;2023-03-19T13:18:13;13.60;99.90
27226;DHT22;14732;51.074;3.788;2023-03-19T13:23:34;13.80;99.90
27226;DHT22;14732;51.074;3.788;2023-03-19T13:26:03;13.40;99.90
27226;DHT22;14732;51.074;3.788;2023-03-19T13:28:34;13.50;99.90
27226;DHT22;14732;51.074;3.788;2023-03-19T13:31:19;13.50;99.90
27226;DHT22;14732;51.074;3.788;2023-03-19T13:34:06;13.50;99.90
27226;DHT22;14732;51.074;3.788;2023-03-19T13:36:43;13.50;99.90
27226;DHT22;14732;51.074;3.788;2023-03-19T13:39:16;13.40;99.90
27226;DHT22;14732;51.074;3.788;2023-03-19T13:44:27;13.30;99.90
27226;DHT22;14732;51.074;3.788;2023-03-19T13:46:53;13.40;99.90
27226;DHT22;14732;51.074;3.788;2023-03-19T13:49:27;13.30;99.90
27226;DHT22;14732;51.074;3.788;2023-03-19T13:51:58;13.20;99.90
27226;DHT22;14732;51.074;3.788;2023-03-19T13:54:39;13.00;99.90
27226;DHT22;14732;51.074;3.788;2023-03-19T13:59:43;12.60;99.90
27226;DHT22;14732;51.074;3.788;2023-03-19T14:07:34;12.10;99.90
27226;DHT22;14732;51.074;3.788;2023-03-19T14:12:32;12.30;99.90
27226;DHT22;14732;51.074;3.788;2023-03-19T14:18:09;12.10;99.90
27226;DHT22;14732;51.074;3.788;2023-03-19T14:20:56;12.00;99.90
27226;DHT22;14732;51.074;3.788;2023-03-19T14:23:27;12.00;99.90
27226;DHT22;14732;51.074;3.788;2023-03-19T14:28:45;12.10;99.90
27226;DHT22;14732;51.074;3.788;2023-03-19T14:31:21;12.00;99.90
27226;DHT22;14732;51.074;3.788;2023-03-19T14:33:57;11.90;99.90
27226;DHT22;14732;51.074;3.788;2023-03-19T14:36:24;11.80;99.90
27226;DHT22;14732;51.074;3.788;2023-03-19T14:39:07;11.80;99.90
27226;DHT22;14732;51.074;3.788;2023-03-19T14:41:39;11.90;99.90
27226;DHT22;14732;51.074;3.788;2023-03-19T14:44:31;12.00;99.90
27226;DHT22;14732;51.074;3.788;2023-03-19T14:55:19;12.10;99.90
27226;DHT22;14732;51.074;3.788;2023-03-19T14:57:45;12.20;99.90
27226;DHT22;14732;51.074;3.788;2023-03-19T15:00:16;12.20;99.90
27226;DHT22;14732;51.074;3.788;2023-03-19T15:02:48;12.10;99.90
27226;DHT22;14732;51.074;3.788;2023-03-19T15:05:24;12.10;99.90
27226;DHT22;14732;51.074;3.788;2023-03-19T15:07:54;12.10;99.90
27226;DHT22;14732;51.074;3.788;2023-03-19T15:10:27;12.30;99.90
27226;DHT22;14732;51.074;3.788;2023-03-19T15:18:03;12.40;99.90
27226;DHT22;14732;51.074;3.788;2023-03-19T15:20:39;12.30;99.90
27226;DHT22;14732;51.074;3.788;2023-03-19T15:23:09;12.50;99.90
27226;DHT22;14732;51.074;3.788;2023-03-19T15:25:44;12.40;99.90
27226;DHT22;14732;51.074;3.788;2023-03-19T15:28:12;12.30;99.90
27226;DHT22;14732;51.074;3.788;2023-03-19T15:30:38;12.40;99.90
27226;DHT22;14732;51.074;3.788;2023-03-19T15:33:19;12.40;99.90
27226;DHT22;14732;51.074;3.788;2023-03-19T15:35:53;12.50;99.90
27226;DHT22;14732;51.074;3.788;2023-03-19T15:38:21;12.40;99.90
27226;DHT22;14732;51.074;3.788;2023-03-19T15:40:47;12.50;99.90
27226;DHT22;14732;51.074;3.788;2023-03-19T15:43:14;12.60;99.90
27226;DHT22;14732;51.074;3.788;2023-03-19T15:45:43;12.70;99.90
27226;DHT22;14732;51.074;3.788;2023-03-19T15:48:34;12.60;99.90
27226;DHT22;14732;51.074;3.788;2023-03-19T15:51:04;12.50;99.90
27226;DHT22;14732;51.074;3.788;2023-03-19T15:53:32;12.20;99.90
27226;DHT22;14732;51.074;3.788;2023-03-19T15:56:01;12.10;99.90
27226;DHT22;14732;51.074;3.788;2023-03-19T15:58:29;12.00;99.90
27226;DHT22;14732;51.074;3.788;2023-03-19T16:00:58;12.10;99.90
27226;DHT22;14732;51.074;3.788;2023-03-19T16:03:33;12.00;99.90
27226;DHT22;14732;51.074;3.788;2023-03-19T16:06:02;12.10;99.90
27226;DHT22;14732;51.074;3.788;2023-03-19T16:08:30;12.30;99.90
27226;DHT22;14732;51.074;3.788;2023-03-19T16:11:20;12.30;99.90
27226;DHT22;14732;51.074;3.788;2023-03-19T16:14:01;12.30;99.90
27226;DHT22;14732;51.074;3.788;2023-03-19T16:16:29;12.00;99.90
27226;DHT22;14732;51.074;3.788;2023-03-19T16:18:57;12.00;99.90
27226;DHT22;14732;51.074;3.788;2023-03-19T16:21:36;12.00;99.90
27226;DHT22;14732;51.074;3.788;2023-03-19T16:24:12;11.90;99.90
27226;DHT22;14732;51.074;3.788;2023-03-19T16:26:41;11.80;99.90
27226;DHT22;14732;51.074;3.788;2023-03-19T16:29:29;11.80;99.90
27226;DHT22;14732;51.074;3.788;2023-03-19T16:32:33;11.60;99.90
27226;DHT22;14732;51.074;3.788;2023-03-19T16:35:13;11.50;99.90
27226;DHT22;14732;51.074;3.788;2023-03-19T16:37:42;11.50;99.90
27226;DHT22;14732;51.074;3.788;2023-03-19T16:42:40;11.70;99.90
27226;DHT22;14732;51.074;3.788;2023-03-19T16:47:46;11.90;99.90
27226;DHT22;14732;51.074;3.788;2023-03-19T16:50:13;11.60;99.90
27226;DHT22;14732;51.074;3.788;2023-03-19T16:52:40;11.60;99.90
27226;DHT22;14732;51.074;3.788;2023-03-19T16:57:41;11.80;99.90
27226;DHT22;14732;51.074;3.788;2023-03-19T17:00:12;11.80;99.90
27226;DHT22;14732;51.074;3.788;2023-03-19T17:02:38;11.80;99.90
27226;DHT22;14732;51.074;3.788;2023-03-19T17:05:15;11.70;99.90
27226;DHT22;14732;51.074;3.788;2023-03-19T17:07:41;11.50;99.90
27226;DHT22;14732;51.074;3.788;2023-03-19T17:10:16;11.60;99.90
27226;DHT22;14732;51.074;3.788;2023-03-19T17:12:43;11.60;99.90
27226;DHT22;14732;51.074;3.788;2023-03-19T17:17:47;11.30;99.90
27226;DHT22;14732;51.074;3.788;2023-03-19T17:20:27;11.30;99.90
27226;DHT22;14732;51.074;3.788;2023-03-19T17:22:53;11.20;99.90
27226;DHT22;14732;51.074;3.788;2023-03-19T17:25:19;11.40;99.90
27226;DHT22;14732;51.074;3.788;2023-03-19T17:27:44;11.50;99.90
27226;DHT22;14732;51.074;3.788;2023-03-19T17:30:11;11.40;99.90
27226;DHT22;14732;51.074;3.788;2023-03-19T17:32:38;11.30;99.90
27226;DHT22;14732;51.074;3.788;2023-03-19T17:35:16;11.30;99.90
27226;DHT22;14732;51.074;3.788;2023-03-19T17:37:43;11.30;99.90
27226;DHT22;14732;51.074;3.788;2023-03-19T17:40:23;11.20;99.90
27226;DHT22;14732;51.074;3.788;2023-03-19T17:42:51;11.20;99.90
27226;DHT22;14732;51.074;3.788;2023-03-19T17:45:19;11.40;99.90
27226;DHT22;14732;51.074;3.788;2023-03-19T17:47:50;11.30;99.90
27226;DHT22;14732;51.074;3.788;2023-03-19T17:50:23;11.20;99.90
27226;DHT22;14732;51.074;3.788;2023-03-19T17:52:50;11.20;99.90
27226;DHT22;14732;51.074;3.788;2023-03-19T17:55:24;11.10;99.90
27226;DHT22;14732;51.074;3.788;2023-03-19T17:57:51;11.10;99.90
27226;DHT22;14732;51.074;3.788;2023-03-19T18:00:18;11.10;99.90
27226;DHT22;14732;51.074;3.788;2023-03-19T18:02:45;11.00;99.90
27226;DHT22;14732;51.074;3.788;2023-03-19T18:05:38;10.90;99.90